Time;durP1;ratioP1;P1;durP2;ratioP2;P2;SDS_P1;SDS_P2;PMS_P1;PMS_P2;Temp;Humidity;BMP_temperature;BMP_pressure;BME280_temperature;BME280_humidity;BME280_pressure;Samples;Min_cycle;Max_cycle;Signal;HPM_P1;HPM_P2
2021/07/13 00:01:27;;;;;;;5.60;2.85;;;;;;;17.57;60.25;99078.53;4827584;29;20061;-82
2021/07/13 00:03:53;;;;;;;11.27;4.40;;;;;;;17.62;60.00;99081.53;4826637;29;20140;-83
2021/07/13 00:06:21;;;;;;;9.95;6.63;;;;;;;17.66;60.18;99072.06;4841226;29;20497;-82
2021/07/13 00:08:51;;;;;;;4.53;3.17;;;;;;;17.68;60.27;99080.03;4826133;29;20613;-81
2021/07/13 00:11:18;;;;;;;2.83;2.63;;;;;;;17.66;60.37;99088.28;4842609;29;20136;-81
2021/07/13 00:13:44;;;;;;;4.43;2.83;;;;;;;17.59;60.15;99071.06;4826139;29;20061;-81
2021/07/13 00:16:11;;;;;;;22.30;11.30;;;;;;;17.71;60.28;99077.81;4826090;29;20057;-82
2021/07/13 00:18:38;;;;;;;14.32;8.13;;;;;;;17.76;60.07;99084.59;4810902;29;20057;-81
2021/07/13 00:21:07;;;;;;;4.63;2.92;;;;;;;17.75;60.18;99080.13;4840541;29;20046;-81
2021/07/13 00:23:35;;;;;;;4.07;2.80;;;;;;;17.61;60.78;99069.06;4810917;29;20068;-81
2021/07/13 00:26:01;;;;;;;4.53;3.00;;;;;;;17.62;60.82;99078.84;4826243;29;20105;-80
2021/07/13 00:28:27;;;;;;;6.95;3.00;;;;;;;17.61;60.94;99087.13;4826188;29;20126;-82
2021/07/13 00:30:56;;;;;;;3.03;2.75;;;;;;;17.52;60.81;99091.69;4826058;29;20046;-82
2021/07/13 00:33:22;;;;;;;5.72;2.75;;;;;;;17.50;61.19;99093.75;4825722;29;20045;-83
2021/07/13 00:35:48;;;;;;;6.90;2.90;;;;;;;17.39;61.35;99089.56;4841749;29;20050;-83
2021/07/13 00:38:14;;;;;;;3.38;2.85;;;;;;;17.41;61.33;99100.19;4837618;29;20505;-84
2021/07/13 00:40:40;;;;;;;7.88;3.28;;;;;;;17.39;61.85;99102.22;4828812;29;20049;-80
2021/07/13 00:43:06;;;;;;;3.85;2.97;;;;;;;17.36;61.71;99108.81;4828842;29;20042;-80
2021/07/13 00:45:32;;;;;;;7.88;3.00;;;;;;;17.38;61.83;99103.25;4859198;29;20049;-81
2021/07/13 00:47:58;;;;;;;3.78;3.15;;;;;;;17.33;61.91;99116.41;4844127;29;20519;-80
2021/07/13 00:50:26;;;;;;;4.85;2.80;;;;;;;17.18;62.64;99095.50;4859266;29;20383;-82
2021/07/13 00:52:52;;;;;;;5.93;2.80;;;;;;;17.16;63.29;99104.81;4859524;29;20465;-81
2021/07/13 00:55:18;;;;;;;5.32;2.88;;;;;;;17.21;62.87;99108.66;4859462;29;20418;-81
2021/07/13 00:57:44;;;;;;;7.90;2.85;;;;;;;17.24;62.75;99111.03;4860074;29;20049;-81
2021/07/13 01:00:11;;;;;;;4.32;3.13;;;;;;;17.29;62.75;99112.38;4828579;29;20084;-82
2021/07/13 01:02:37;;;;;;;3.42;3.13;;;;;;;17.39;62.28;99096.81;4813149;29;20049;-78
2021/07/13 01:05:11;;;;;;;7.25;2.83;;;;;;;17.43;62.58;99092.75;4843349;29;20109;-83
2021/07/13 01:07:42;;;;;;;3.10;2.80;;;;;;;17.46;62.07;99081.59;4821643;29;20069;-80
2021/07/13 01:10:14;;;;;;;8.32;2.90;;;;;;;17.58;61.97;99103.69;4810435;29;20056;-82
2021/07/13 01:12:46;;;;;;;3.10;2.78;;;;;;;17.70;61.81;99107.69;4810803;29;20566;-81
2021/07/13 01:15:17;;;;;;;6.70;3.15;;;;;;;17.79;61.23;99098.59;4841712;29;20073;-80
2021/07/13 01:17:58;;;;;;;5.05;3.30;;;;;;;17.98;60.93;99109.97;4828675;29;20049;-81
2021/07/13 01:20:52;;;;;;;3.45;3.05;;;;;;;18.09;60.67;99099.66;4846278;29;20061;-82
2021/07/13 01:23:28;;;;;;;4.95;2.83;;;;;;;18.19;60.24;99100.25;4863238;29;20045;-80
2021/07/13 01:25:56;;;;;;;6.53;3.05;;;;;;;18.33;59.79;99100.53;4832320;29;20053;-80
2021/07/13 01:28:23;;;;;;;3.40;3.00;;;;;;;18.38;59.49;99088.13;4816579;29;20075;-79
2021/07/13 01:31:00;;;;;;;8.18;2.97;;;;;;;18.57;59.23;99100.34;4832254;29;20049;-80
2021/07/13 01:33:27;;;;;;;4.38;3.03;;;;;;;18.53;59.24;99093.59;4845038;29;20095;-80
2021/07/13 01:36:08;;;;;;;4.55;2.65;;;;;;;18.79;58.96;99109.53;4846982;29;20049;-81
2021/07/13 01:38:38;;;;;;;3.50;2.72;;;;;;;18.89;58.49;99114.72;4831828;29;20137;-81
2021/07/13 01:41:08;;;;;;;5.35;2.90;;;;;;;18.93;58.78;99111.44;4847133;29;20049;-82
2021/07/13 01:43:36;;;;;;;5.68;2.88;;;;;;;18.99;58.54;99114.44;4831615;29;20524;-81
2021/07/13 01:46:03;;;;;;;5.65;3.00;;;;;;;19.15;58.05;99108.91;4832323;29;20497;-88
2021/07/13 01:48:30;;;;;;;8.13;3.25;;;;;;;19.44;57.93;99115.38;4847477;29;20049;-85
2021/07/13 01:50:56;;;;;;;4.72;3.22;;;;;;;19.73;57.65;99118.16;4819023;29;20508;-86
2021/07/13 01:53:27;;;;;;;6.90;3.00;;;;;;;19.82;56.91;99127.00;4833621;29;20074;-86
2021/07/13 01:55:53;;;;;;;6.40;3.00;;;;;;;19.59;57.63;99125.19;4819985;29;20045;-87
2021/07/13 01:58:21;;;;;;;3.28;2.60;;;;;;;19.44;57.99;99115.38;4865317;29;20048;-85
2021/07/13 02:00:47;;;;;;;4.53;3.20;;;;;;;19.44;57.95;99121.63;4835958;29;20049;-87
2021/07/13 02:03:13;;;;;;;3.00;2.70;;;;;;;19.57;57.82;99119.13;4849972;29;20400;-84
2021/07/13 02:05:39;;;;;;;3.92;3.20;;;;;;;19.68;57.54;99128.72;4848483;29;20140;-84
2021/07/13 02:08:05;;;;;;;5.72;2.95;;;;;;;19.55;57.73;99123.88;4818602;29;20049;-88
2021/07/13 02:10:32;;;;;;;4.03;3.33;;;;;;;19.47;58.00;99120.44;4816360;29;20489;-80
2021/07/13 02:12:58;;;;;;;8.88;3.40;;;;;;;19.72;57.97;99124.59;4862136;29;20528;-81
2021/07/13 02:15:24;;;;;;;5.65;4.18;;;;;;;19.87;57.64;99124.59;4861659;29;20411;-78
2021/07/13 02:17:51;;;;;;;5.78;3.50;;;;;;;19.99;57.42;99119.53;4846907;29;20056;-83
2021/07/13 02:20:19;;;;;;;6.35;5.15;;;;;;;20.17;57.20;99133.56;4844459;29;20097;-82
2021/07/13 02:22:45;;;;;;;4.90;3.40;;;;;;;20.12;56.64;99119.69;4802118;29;20141;-89
2021/07/13 02:25:12;;;;;;;5.35;3.47;;;;;;;20.09;57.29;99137.22;4832368;29;20061;-79
2021/07/13 02:27:45;;;;;;;10.68;3.35;;;;;;;20.06;57.55;99136.75;4816205;29;20049;-82
2021/07/13 02:30:12;;;;;;;3.30;3.00;;;;;;;20.14;57.10;99140.19;4861311;29;20053;-77
2021/07/13 02:32:41;;;;;;;7.35;3.15;;;;;;;20.13;57.19;99132.25;4845720;29;20048;-83
2021/07/13 02:35:08;;;;;;;6.05;3.42;;;;;;;20.14;57.31;99128.50;4861709;29;20140;-82
2021/07/13 02:37:35;;;;;;;12.63;3.50;;;;;;;20.37;56.98;99134.63;4850121;29;20050;-89
2021/07/13 02:40:08;;;;;;;7.13;4.10;;;;;;;20.70;56.20;99138.78;4816212;29;20048;-81
2021/07/13 02:42:36;;;;;;;12.23;3.10;;;;;;;20.81;56.11;99119.25;4861593;29;20072;-75
2021/07/13 02:45:02;;;;;;;6.15;3.42;;;;;;;20.95;55.54;99117.50;4831322;29;20053;-82
2021/07/13 02:47:30;;;;;;;9.55;3.10;;;;;;;20.79;55.35;99105.03;4817326;29;20046;-79
2021/07/13 02:49:56;;;;;;;5.70;3.28;;;;;;;20.75;55.24;99110.00;4850536;29;20057;-80
2021/07/13 02:52:26;;;;;;;5.97;3.17;;;;;;;20.67;55.90;99131.03;4858838;29;20041;-80
2021/07/13 02:54:59;;;;;;;7.72;3.15;;;;;;;20.59;56.31;99116.53;4847682;29;20056;-79
2021/07/13 02:57:26;;;;;;;3.40;3.05;;;;;;;20.65;56.32;99122.22;4831850;29;20045;-80
2021/07/13 02:59:52;;;;;;;8.55;3.30;;;;;;;20.71;56.08;99125.00;4815877;29;20050;-79
2021/07/13 03:02:19;;;;;;;4.28;3.20;;;;;;;20.73;55.97;99130.25;4815767;29;20439;-77
2021/07/13 03:04:45;;;;;;;7.10;3.28;;;;;;;20.84;55.94;99125.16;4830453;29;20073;-82
2021/07/13 03:07:11;;;;;;;11.82;3.22;;;;;;;21.02;55.59;99126.53;4830342;29;20128;-80
2021/07/13 03:09:37;;;;;;;4.63;2.80;;;;;;;21.14;55.19;99130.44;4860515;29;20053;-78
2021/07/13 03:12:06;;;;;;;13.68;3.38;;;;;;;21.26;54.80;99133.47;4815081;29;20038;-81
2021/07/13 03:14:32;;;;;;;;;;;;;;;21.46;54.59;99134.47;4831057;29;20049;-77
2021/07/13 03:16:58;;;;;;;4.45;3.15;;;;;;;21.54;54.13;99131.59;4860631;29;20388;-81
2021/07/13 03:19:24;;;;;;;5.25;3.30;;;;;;;21.59;54.34;99133.75;4845284;29;20098;-81
2021/07/13 03:21:51;;;;;;;13.88;3.45;;;;;;;21.68;53.95;99126.25;4830387;29;20064;-79
2021/07/13 03:24:17;;;;;;;6.85;3.30;;;;;;;21.81;53.55;99120.88;4830025;29;20084;-81
2021/07/13 03:26:46;;;;;;;7.90;3.47;;;;;;;21.79;53.74;99145.59;4845273;29;20201;-79
2021/07/13 03:29:12;;;;;;;5.97;3.22;;;;;;;21.64;54.14;99135.88;4830680;29;20084;-83
2021/07/13 03:31:38;;;;;;;7.22;3.30;;;;;;;21.45;54.66;99138.25;4845280;29;20532;-79
2021/07/13 03:34:05;;;;;;;9.10;3.42;;;;;;;21.36;55.09;99150.28;4831959;29;20053;-80
2021/07/13 03:36:31;;;;;;;4.25;2.75;;;;;;;21.17;55.42;99157.19;4846741;29;20577;-82
2021/07/13 03:38:57;;;;;;;8.52;3.33;;;;;;;20.93;55.48;99166.59;4844985;29;20136;-79
2021/07/13 03:41:23;;;;;;;6.15;4.00;;;;;;;20.77;56.30;99156.84;4860255;29;20480;-79
2021/07/13 03:43:49;;;;;;;5.18;3.13;;;;;;;20.70;56.09;99165.94;4814581;29;20105;-83
2021/07/13 03:46:15;;;;;;;6.95;2.78;;;;;;;20.47;56.34;99166.91;4845581;29;20121;-77
2021/07/13 03:48:41;;;;;;;4.20;3.08;;;;;;;20.47;56.22;99161.47;4860195;29;20509;-79
2021/07/13 03:51:08;;;;;;;10.30;3.60;;;;;;;20.68;55.87;99168.84;4799454;29;20053;-79
2021/07/13 03:53:34;;;;;;;9.85;3.10;;;;;;;20.90;55.58;99158.00;4845297;29;20056;-80
2021/07/13 03:56:00;;;;;;;7.20;3.20;;;;;;;21.14;55.44;99145.88;4860624;29;20060;-79
2021/07/13 03:58:26;;;;;;;7.43;3.55;;;;;;;21.49;54.74;99141.41;4830191;29;20413;-79
2021/07/13 04:00:52;;;;;;;6.57;3.38;;;;;;;21.88;53.24;99132.66;4830023;29;20105;-80
2021/07/13 04:03:18;;;;;;;7.47;3.33;;;;;;;22.03;52.73;99130.63;4861505;29;20045;-80
2021/07/13 04:05:44;;;;;;;6.85;3.50;;;;;;;22.01;52.54;99132.75;4815155;29;20049;-84
2021/07/13 04:08:10;;;;;;;6.28;3.13;;;;;;;22.17;52.62;99130.75;4844764;29;20088;-80
2021/07/13 04:10:36;;;;;;;6.22;3.40;;;;;;;22.11;51.50;99128.78;4859829;29;20049;-83
2021/07/13 04:13:02;;;;;;;10.48;3.88;;;;;;;21.98;52.14;99137.75;4829362;29;20156;-78
2021/07/13 04:15:29;;;;;;;7.97;4.57;;;;;;;21.97;51.30;99131.47;4859527;29;20046;-78
2021/07/13 04:17:55;;;;;;;7.07;4.40;;;;;;;21.79;50.71;99128.44;4859839;29;20497;-78
2021/07/13 04:20:21;;;;;;;5.47;4.43;;;;;;;21.62;51.65;99121.59;4844448;29;20117;-77
2021/07/13 04:22:49;;;;;;;4.55;3.75;;;;;;;21.70;51.87;99121.44;4844413;29;20121;-78
2021/07/13 04:25:16;;;;;;;;;;;;;;;21.67;51.48;99113.72;4844442;29;20121;-79
2021/07/13 04:27:42;;;;;;;6.25;3.50;;;;;;;21.80;50.81;99124.66;4844134;29;19927;-78
2021/07/13 04:30:09;;;;;;;3.83;3.50;;;;;;;21.99;49.79;99123.91;4828571;29;20049;-78
2021/07/13 04:32:35;;;;;;;6.68;2.80;;;;;;;21.97;48.48;99134.19;4842190;29;20056;-78
2021/07/13 04:35:01;;;;;;;5.03;3.00;;;;;;;21.95;49.19;99133.53;4858891;29;20057;-79
2021/07/13 04:37:27;;;;;;;6.75;3.20;;;;;;;21.95;49.20;99128.09;4827419;29;20526;-78
2021/07/13 04:39:53;;;;;;;3.05;2.75;;;;;;;22.33;48.42;99124.09;4842531;29;20078;-79
2021/07/13 04:42:19;;;;;;;4.93;3.15;;;;;;;22.71;47.92;99118.97;4842380;29;20072;-79
2021/07/13 04:44:45;;;;;;;9.02;2.70;;;;;;;23.07;46.71;99109.63;4856804;29;20117;-78
2021/07/13 04:47:11;;;;;;;4.55;2.75;;;;;;;23.17;46.74;99119.06;4844010;29;20525;-77
2021/07/13 04:49:36;;;;;;;5.40;3.00;;;;;;;23.24;47.05;99116.31;4859140;29;20119;-78
2021/07/13 04:52:03;;;;;;;12.82;3.00;;;;;;;23.32;45.57;99107.94;4859913;29;20088;-78
2021/07/13 04:54:31;;;;;;;8.13;2.88;;;;;;;23.47;45.38;99105.84;4860921;29;20413;-78
2021/07/13 04:56:58;;;;;;;6.97;3.22;;;;;;;23.56;44.86;99106.44;4864268;29;20053;-78
2021/07/13 04:59:24;;;;;;;6.47;2.70;;;;;;;23.72;44.80;99086.91;4847560;29;20513;-79
2021/07/13 05:01:50;;;;;;;5.60;2.88;;;;;;;24.18;43.99;99109.63;4863301;29;20074;-77
2021/07/13 05:04:16;;;;;;;2.83;2.63;;;;;;;24.30;43.08;99107.94;4847205;29;20054;-79
2021/07/13 05:06:42;;;;;;;3.95;2.13;;;;;;;24.26;42.75;99109.41;4847516;29;20101;-79
2021/07/13 05:09:08;;;;;;;2.88;2.58;;;;;;;24.61;41.96;99101.69;4862940;29;20109;-79
2021/07/13 05:11:34;;;;;;;3.05;2.70;;;;;;;24.68;41.40;99107.13;4847215;29;20045;-80
2021/07/13 05:14:02;;;;;;;2.90;2.60;;;;;;;24.54;40.72;99100.06;4862761;29;20527;-79
2021/07/13 05:16:28;;;;;;;2.75;2.47;;;;;;;24.56;40.62;99097.91;4864188;29;20056;-79
2021/07/13 05:18:55;;;;;;;6.30;2.67;;;;;;;24.58;40.40;99095.81;4832327;29;20060;-78
2021/07/13 05:21:21;;;;;;;3.38;2.75;;;;;;;24.60;40.55;99088.25;4831943;29;20045;-79
2021/07/13 05:23:48;;;;;;;4.47;2.13;;;;;;;24.73;39.77;99079.94;4847271;29;20572;-80
2021/07/13 05:26:14;;;;;;;3.08;2.20;;;;;;;24.83;39.79;99082.22;4847289;29;20051;-79
2021/07/13 05:28:40;;;;;;;5.63;2.50;;;;;;;24.73;39.93;99066.28;4847091;29;20144;-78
2021/07/13 05:31:06;;;;;;;3.28;2.45;;;;;;;24.77;40.37;99066.69;4831768;29;20128;-79
2021/07/13 05:33:32;;;;;;;5.63;2.55;;;;;;;24.52;40.81;99072.09;4832094;29;20064;-78
2021/07/13 05:35:58;;;;;;;3.17;2.53;;;;;;;24.63;40.85;99077.69;4831989;29;20132;-77
2021/07/13 05:38:24;;;;;;;3.80;2.50;;;;;;;24.91;40.68;99069.09;4863681;29;20045;-77
2021/07/13 05:40:50;;;;;;;3.78;2.53;;;;;;;24.99;39.82;99076.19;4831675;29;20405;-78
2021/07/13 05:43:16;;;;;;;3.30;2.20;;;;;;;25.13;38.72;99069.59;4863308;29;20052;-78
2021/07/13 05:45:43;;;;;;;2.55;2.30;;;;;;;25.37;37.85;99046.00;4831498;29;20415;-79
2021/07/13 05:48:09;;;;;;;6.05;2.63;;;;;;;25.24;38.42;99073.50;4816700;29;20049;-78
2021/07/13 05:50:35;;;;;;;5.90;2.50;;;;;;;25.54;38.57;99067.28;4846524;29;20409;-78
2021/07/13 05:53:02;;;;;;;4.75;2.70;;;;;;;25.43;39.19;99069.72;4815911;29;20113;-79
2021/07/13 05:55:29;;;;;;;5.00;2.87;;;;;;;25.63;38.13;99063.19;4846530;29;20144;-78
2021/07/13 05:57:55;;;;;;;6.25;2.42;;;;;;;25.40;38.76;99086.59;4846119;29;20369;-78
2021/07/13 06:00:21;;;;;;;8.23;2.70;;;;;;;25.06;39.18;99081.59;4831001;29;20128;-78
2021/07/13 06:02:47;;;;;;;6.82;2.10;;;;;;;25.10;39.17;99066.47;4845723;29;20189;-80
2021/07/13 06:05:13;;;;;;;8.63;2.40;;;;;;;25.10;38.88;99061.00;4845816;29;20074;-81
2021/07/13 06:07:43;;;;;;;4.32;3.00;;;;;;;25.39;38.60;99043.88;4827638;29;20057;-79
2021/07/13 06:10:09;;;;;;;4.03;2.25;;;;;;;25.27;38.47;99059.34;4828012;29;20049;-79
2021/07/13 06:12:35;;;;;;;5.47;2.20;;;;;;;25.08;38.20;99052.13;4843235;29;20069;-79
2021/07/13 06:15:01;;;;;;;3.72;2.10;;;;;;;24.61;37.61;99062.59;4827705;29;20512;-78
2021/07/13 06:17:27;;;;;;;3.30;2.10;;;;;;;24.56;38.42;99062.41;4858617;29;20513;-78
2021/07/13 06:19:53;;;;;;;4.57;2.05;;;;;;;24.59;38.13;99054.59;4846062;29;20049;-77
2021/07/13 06:22:19;;;;;;;4.15;2.83;;;;;;;24.61;39.89;99059.88;4830725;29;20056;-80
2021/07/13 06:24:45;;;;;;;2.70;2.50;;;;;;;24.26;41.32;99060.25;4861306;29;20160;-78
2021/07/13 06:27:11;;;;;;;5.97;2.45;;;;;;;24.27;42.11;99066.56;4862543;29;20073;-76
2021/07/13 06:29:37;;;;;;;3.15;2.75;;;;;;;24.24;42.53;99063.19;4862551;29;20144;-79
2021/07/13 06:32:03;;;;;;;7.13;3.65;;;;;;;24.51;41.96;99073.16;4862736;29;20049;-78
2021/07/13 06:34:30;;;;;;;10.52;2.70;;;;;;;24.30;42.43;99072.41;4861465;29;20170;-79
2021/07/13 06:36:56;;;;;;;7.47;2.38;;;;;;;24.27;42.29;99067.38;4860196;29;20136;-78
2021/07/13 06:39:23;;;;;;;3.22;2.50;;;;;;;23.90;42.67;99069.00;4858817;29;20064;-79
2021/07/13 06:41:49;;;;;;;4.13;2.60;;;;;;;23.57;43.10;99074.53;4858821;29;20049;-78
2021/07/13 06:44:15;;;;;;;4.47;2.80;;;;;;;23.33;43.21;99078.78;4828184;29;20089;-78
2021/07/13 06:46:41;;;;;;;5.68;2.42;;;;;;;23.35;44.00;99080.22;4858619;29;20099;-79
2021/07/13 06:49:07;;;;;;;6.35;2.47;;;;;;;23.18;45.28;99090.75;4843491;29;20137;-79
2021/07/13 06:51:33;;;;;;;7.85;2.90;;;;;;;22.87;45.88;99088.63;4858671;29;20049;-79
2021/07/13 06:53:59;;;;;;;6.95;2.60;;;;;;;22.83;45.79;99089.22;4829471;29;20137;-79
2021/07/13 06:56:24;;;;;;;6.35;2.28;;;;;;;23.16;45.61;99081.09;4860962;29;20136;-79
2021/07/13 06:58:50;;;;;;;3.22;2.63;;;;;;;23.57;45.04;99063.63;4862179;29;20049;-77
2021/07/13 07:01:16;;;;;;;5.78;2.67;;;;;;;23.97;45.44;99067.09;4860930;29;20053;-78
2021/07/13 07:03:42;;;;;;;7.78;2.90;;;;;;;24.36;45.36;99066.06;4815220;29;20046;-78
2021/07/13 07:06:08;;;;;;;3.58;2.42;;;;;;;24.80;45.14;99066.25;4845536;29;20516;-79
2021/07/13 07:08:34;;;;;;;6.05;2.40;;;;;;;24.73;45.71;99060.81;4845394;29;20054;-78
2021/07/13 07:11:00;;;;;;;2.60;2.40;;;;;;;24.57;45.84;99056.72;4845042;29;20461;-78
2021/07/13 07:13:26;;;;;;;2.63;2.42;;;;;;;24.45;46.18;99053.88;4829890;29;20045;-79
2021/07/13 07:15:52;;;;;;;7.72;2.80;;;;;;;24.53;45.82;99043.72;4860314;29;20201;-79
2021/07/13 07:18:19;;;;;;;7.13;2.70;;;;;;;24.67;45.30;99053.50;4875615;29;20068;-79
2021/07/13 07:20:45;;;;;;;3.83;2.72;;;;;;;24.63;44.21;99033.13;4846089;29;20080;-78
2021/07/13 07:23:11;;;;;;;4.53;2.72;;;;;;;25.04;44.25;99037.22;4844957;29;20132;-79
2021/07/13 07:25:38;;;;;;;2.42;2.22;;;;;;;24.93;42.23;99034.16;4859809;29;20137;-78
2021/07/13 07:28:04;;;;;;;3.67;2.10;;;;;;;24.77;42.69;99039.34;4860636;29;20422;-79
2021/07/13 07:30:30;;;;;;;4.25;2.40;;;;;;;25.12;42.24;99039.69;4860065;29;20045;-78
2021/07/13 07:32:58;;;;;;;5.50;2.40;;;;;;;25.55;41.76;99030.66;4860083;29;20109;-77
2021/07/13 07:35:24;;;;;;;3.53;2.10;;;;;;;26.17;40.71;99034.13;4844705;29;20585;-78
2021/07/13 07:37:50;;;;;;;2.88;2.50;;;;;;;25.70;39.90;99038.50;4858705;29;20501;-80
2021/07/13 07:40:18;;;;;;;5.20;2.80;;;;;;;25.47;40.96;99030.97;4797649;29;20046;-78
2021/07/13 07:42:45;;;;;;;4.47;2.65;;;;;;;25.32;40.82;99032.16;4860979;29;20053;-79
2021/07/13 07:45:11;;;;;;;4.70;2.60;;;;;;;25.61;40.74;99025.13;4859892;29;20065;-78
2021/07/13 07:47:38;;;;;;;3.20;2.67;;;;;;;25.50;42.39;99025.88;4828788;29;20524;-79
2021/07/13 07:50:04;;;;;;;3.75;2.78;;;;;;;25.38;42.47;99030.41;4859386;29;20050;-81
2021/07/13 07:52:30;;;;;;;2.45;2.25;;;;;;;25.55;42.80;99028.75;4844278;29;20050;-76
2021/07/13 07:54:59;;;;;;;4.38;3.08;;;;;;;25.41;43.08;99022.59;4860511;29;20049;-76
2021/07/13 07:57:25;;;;;;;5.28;2.80;;;;;;;25.43;42.99;99005.97;4829027;29;20065;-75
2021/07/13 07:59:51;;;;;;;3.92;2.78;;;;;;;25.38;43.01;99014.00;4843841;29;20137;-74
2021/07/13 08:02:17;;;;;;;3.20;2.63;;;;;;;25.71;42.10;99018.25;4828882;29;20055;-77
2021/07/13 08:04:43;;;;;;;5.45;2.50;;;;;;;26.17;41.87;98998.50;4828682;29;20501;-76
2021/07/13 08:07:09;;;;;;;3.17;2.70;;;;;;;26.20;39.85;99011.75;4813698;29;20473;-78
2021/07/13 08:09:35;;;;;;;3.30;2.65;;;;;;;26.34;39.26;98996.81;4843758;29;20052;-76
2021/07/13 08:12:01;;;;;;;3.20;2.20;;;;;;;26.54;38.58;98996.53;4859141;29;20572;-75
2021/07/13 08:14:27;;;;;;;2.53;2.33;;;;;;;26.40;39.45;98995.88;4843775;29;20522;-76
2021/07/13 08:16:55;;;;;;;3.72;2.78;;;;;;;26.35;40.85;98998.47;4843764;29;20053;-75
2021/07/13 08:19:21;;;;;;;3.80;2.60;;;;;;;26.40;40.99;98995.00;4858979;29;20056;-74
2021/07/13 08:21:47;;;;;;;4.35;2.67;;;;;;;26.98;40.52;98993.50;4873836;29;20156;-75
2021/07/13 08:24:12;;;;;;;2.65;2.45;;;;;;;26.88;38.76;98994.06;4858941;29;20095;-76
2021/07/13 08:26:39;;;;;;;5.03;2.80;;;;;;;27.32;38.37;98984.44;4843350;29;20045;-74
2021/07/13 08:29:05;;;;;;;6.78;2.17;;;;;;;27.78;37.58;98993.69;4858317;29;20045;-75
2021/07/13 08:31:31;;;;;;;2.85;2.55;;;;;;;28.13;37.33;98991.91;4827899;29;20053;-74
2021/07/13 08:33:57;;;;;;;2.83;2.50;;;;;;;27.27;38.63;98978.84;4858692;29;20463;-73
2021/07/13 08:36:23;;;;;;;4.30;2.70;;;;;;;26.68;40.01;98974.38;4843563;29;20205;-74
2021/07/13 08:38:48;;;;;;;4.63;2.90;;;;;;;26.92;39.45;98980.72;4857880;29;20045;-75
2021/07/13 08:41:18;;;;;;;4.18;2.85;;;;;;;27.36;38.77;98976.56;4828552;29;20045;-76
2021/07/13 08:43:44;;;;;;;4.03;2.92;;;;;;;27.35;38.86;98981.22;4858580;29;20096;-75
2021/07/13 08:46:10;;;;;;;5.45;2.50;;;;;;;27.20;39.33;98971.81;4858675;29;20057;-75
2021/07/13 08:48:36;;;;;;;8.18;2.65;;;;;;;27.60;38.57;98969.94;4843115;29;20528;-76
2021/07/13 08:51:02;;;;;;;5.00;2.55;;;;;;;27.90;37.63;98962.59;4843060;29;20056;-74
2021/07/13 08:53:31;;;;;;;5.95;2.50;;;;;;;28.10;37.11;98949.28;4856800;29;20060;-76
2021/07/13 08:55:57;;;;;;;4.70;2.30;;;;;;;28.47;36.86;98951.59;4843453;29;20053;-75
2021/07/13 08:58:23;;;;;;;7.22;2.67;;;;;;;28.43;36.43;98953.16;4858040;29;20155;-75
2021/07/13 09:00:49;;;;;;;7.15;2.72;;;;;;;28.52;36.60;98973.69;4828067;29;20042;-78
2021/07/13 09:03:19;;;;;;;2.70;2.50;;;;;;;28.79;36.42;98955.44;4842858;29;20137;-75
2021/07/13 09:05:49;;;;;;;2.85;2.38;;;;;;;28.99;36.17;98948.59;4858089;29;20049;-75
2021/07/13 09:08:17;;;;;;;4.70;2.50;;;;;;;28.97;34.93;98945.25;4827419;29;20053;-75
2021/07/13 09:11:05;;;;;;;4.15;2.40;;;;;;;28.69;35.07;98958.00;4812215;29;20042;-76
2021/07/13 09:13:36;;;;;;;;;;;;;;;28.22;35.65;98963.78;4829276;29;20046;-74
2021/07/13 09:16:03;;;;;;;2.33;2.10;;;;;;;28.06;35.86;98961.84;4859214;29;20390;-77
2021/07/13 09:18:40;;;;;;;3.35;2.63;;;;;;;28.39;35.45;98944.59;4828184;29;20077;-76
2021/07/13 09:21:11;;;;;;;3.70;2.58;;;;;;;28.77;34.10;98938.38;4858680;29;20563;-75
2021/07/13 09:24:03;;;;;;;2.72;2.40;;;;;;;29.17;33.82;98936.50;4843601;29;20077;-75
2021/07/13 09:26:43;;;;;;;6.55;2.30;;;;;;;28.95;33.85;98947.41;4843404;29;20079;-77
2021/07/13 09:29:26;;;;;;;2.90;2.60;;;;;;;28.48;33.93;98936.78;4813996;29;20061;-75
2021/07/13 09:31:53;;;;;;;2.78;2.50;;;;;;;27.98;34.40;98934.72;4828590;29;20053;-75
2021/07/13 09:34:19;;;;;;;2.70;2.40;;;;;;;28.31;34.24;98929.31;4843487;29;20053;-75
2021/07/13 09:36:52;;;;;;;2.45;2.25;;;;;;;28.45;33.62;98923.53;4827501;29;20592;-74
2021/07/13 09:39:25;;;;;;;4.47;2.30;;;;;;;28.48;34.05;98928.53;4843553;29;20117;-75
2021/07/13 09:41:52;;;;;;;4.22;2.50;;;;;;;28.38;33.50;98925.59;4846888;29;20060;-74
2021/07/13 09:44:22;;;;;;;2.95;2.53;;;;;;;28.04;34.04;98918.09;4846735;29;20505;-75
2021/07/13 09:46:49;;;;;;;6.88;2.58;;;;;;;28.06;34.37;98921.47;4831476;29;20053;-75
2021/07/13 09:49:20;;;;;;;2.30;2.10;;;;;;;28.32;34.33;98930.13;4862179;29;20458;-76
2021/07/13 09:52:04;;;;;;;2.42;2.20;;;;;;;28.66;33.26;98914.53;4861628;29;20466;-76
2021/07/13 09:54:41;;;;;;;2.35;2.15;;;;;;;29.29;32.42;98917.94;4862043;29;20054;-75
2021/07/13 09:57:22;;;;;;;7.75;2.63;;;;;;;30.12;31.86;98909.53;4831491;29;20160;-75
2021/07/13 09:59:52;;;;;;;3.67;2.40;;;;;;;30.20;31.42;98917.38;4861993;29;20549;-78
2021/07/13 10:02:21;;;;;;;3.00;2.33;;;;;;;29.87;31.75;98923.91;4861797;29;20057;-76
2021/07/13 10:04:48;;;;;;;6.45;2.17;;;;;;;29.95;32.09;98916.00;4831892;29;20081;-77
2021/07/13 10:07:18;;;;;;;2.72;2.30;;;;;;;30.19;31.71;98912.97;4846155;29;20057;-76
2021/07/13 10:09:51;;;;;;;4.38;2.85;;;;;;;29.94;31.75;98907.97;4846415;29;20050;-77
2021/07/13 10:12:22;;;;;;;5.15;2.17;;;;;;;29.46;32.35;98906.88;4845148;29;20065;-75
2021/07/13 10:14:49;;;;;;;2.88;2.47;;;;;;;29.12;33.07;98912.50;4845877;29;20049;-76
2021/07/13 10:17:16;;;;;;;5.32;2.42;;;;;;;29.09;33.36;98904.72;4846020;29;20061;-76
2021/07/13 10:19:46;;;;;;;4.97;2.50;;;;;;;29.50;32.85;98913.53;4831172;29;20057;-76
2021/07/13 10:22:13;;;;;;;8.10;2.85;;;;;;;30.10;31.29;98909.00;4815935;29;20041;-76
2021/07/13 10:24:39;;;;;;;4.28;2.83;;;;;;;29.93;31.60;98917.34;4861234;29;20172;-75
2021/07/13 10:27:08;;;;;;;6.82;2.88;;;;;;;29.65;31.96;98911.00;4845864;29;20065;-75
2021/07/13 10:29:34;;;;;;;8.13;4.15;;;;;;;29.62;32.25;98902.41;4861286;29;20060;-76
2021/07/13 10:32:15;;;;;;;7.28;2.97;;;;;;;29.11;32.88;98910.84;4861106;29;20053;-75
2021/07/13 10:34:55;;;;;;;7.32;3.17;;;;;;;29.88;31.99;98909.03;4861360;29;20056;-76
2021/07/13 10:37:28;;;;;;;11.85;3.15;;;;;;;30.43;30.43;98895.00;4861048;29;20413;-75
2021/07/13 10:39:56;;;;;;;14.85;3.75;;;;;;;31.07;29.81;98904.25;4827057;29;20050;-75
2021/07/13 10:42:48;;;;;;;29.27;3.97;;;;;;;31.06;29.11;98908.97;4842469;29;20064;-76
2021/07/13 10:45:29;;;;;;;7.78;3.80;;;;;;;30.60;29.96;98916.91;4827502;29;20149;-78
2021/07/13 10:48:03;;;;;;;8.63;3.33;;;;;;;30.90;29.55;98915.50;4813244;29;20502;-76
2021/07/13 10:50:30;;;;;;;7.40;3.53;;;;;;;32.31;28.37;98915.50;4828774;29;20054;-87
2021/07/13 10:53:01;;;;;;;10.25;3.22;;;;;;;32.90;27.25;98917.75;4843871;29;20049;-87
2021/07/13 10:55:30;;;;;;;10.15;2.80;;;;;;;33.33;26.66;98907.16;4829028;29;20049;-87
2021/07/13 10:58:09;;;;;;;9.98;3.15;;;;;;;32.43;25.81;98918.06;4844351;29;20052;-89
2021/07/13 11:00:47;;;;;;;;;;;;;;;31.26;27.28;98912.97;4845422;29;20049;-88
2021/07/13 11:03:31;;;;;;;7.70;2.55;;;;;;;31.76;26.95;98912.34;4844133;29;19920;-84
2021/07/13 11:06:06;;;;;;;4.25;2.60;;;;;;;31.56;27.27;98910.38;4862406;29;20053;-84
2021/07/13 11:08:39;;;;;;;10.95;3.15;;;;;;;31.42;27.11;98912.78;4861852;29;20050;-88
2021/07/13 11:11:14;;;;;;;5.15;3.03;;;;;;;32.53;26.46;98910.56;4861491;29;20057;-88
2021/07/13 11:13:40;;;;;;;20.70;3.50;;;;;;;33.32;25.07;98909.06;4861919;29;20064;-87
2021/07/13 11:16:06;;;;;;;3.13;2.15;;;;;;;33.82;24.62;98911.97;4845682;29;20064;-86
2021/07/13 11:18:33;;;;;;;3.75;2.05;;;;;;;33.69;24.61;98909.78;4862581;29;20437;-87
2021/07/13 11:21:26;;;;;;;6.57;2.22;;;;;;;33.99;22.95;98898.56;4846218;29;20048;-85
2021/07/13 11:23:56;;;;;;;3.47;1.90;;;;;;;34.19;22.57;98916.16;4862203;29;20062;-87
2021/07/13 11:26:23;;;;;;;3.10;2.00;;;;;;;34.48;22.15;98900.41;4861328;29;20505;-88
2021/07/13 11:28:53;;;;;;;9.30;2.37;;;;;;;34.26;21.97;98913.91;4830258;29;20056;-85
2021/07/13 11:31:29;;;;;;;3.63;2.22;;;;;;;33.67;22.50;98900.94;4862239;29;20054;-82
2021/07/13 11:34:05;;;;;;;3.15;2.10;;;;;;;32.86;23.42;98902.81;4816034;29;20190;-89
2021/07/13 11:36:42;;;;;;;4.30;2.28;;;;;;;33.41;22.83;98889.13;4847407;29;20053;-89
2021/07/13 11:39:13;;;;;;;5.18;1.90;;;;;;;34.53;22.17;98897.63;4817057;29;20089;-85